Time;durP1;ratioP1;P1;durP2;ratioP2;P2;SDS_P1;SDS_P2;PMS_P1;PMS_P2;Temp;Humidity;BMP_temperature;BMP_pressure;BME280_temperature;BME280_humidity;BME280_pressure;Samples;Min_cycle;Max_cycle;Signal;HPM_P1;HPM_P2
2023/08/15 00:03:04;;;;;;;;;;;21.50;99.90;;;;;;6686059;88;21716;-74
2023/08/15 00:13:04;;;;;;;;;;;21.40;99.90;;;;;;6688776;88;20081;-74
2023/08/15 00:23:05;;;;;;;;;;;21.30;99.90;;;;;;6691635;88;20555;-73
2023/08/15 00:33:05;;;;;;;;;;;21.20;99.90;;;;;;6691833;88;20064;-74
2023/08/15 00:43:06;;;;;;;;;;;21.10;99.90;;;;;;6692846;88;20068;-74
2023/08/15 00:53:07;;;;;;;;;;;21.20;99.90;;;;;;6688919;88;20055;-74
2023/08/15 01:03:07;;;;;;;;;;;21.30;99.90;;;;;;6687822;88;20527;-73
2023/08/15 01:13:22;;;;;;;;;;;21.40;99.90;;;;;;6682802;88;20466;-74
2023/08/15 01:23:42;;;;;;;;;;;21.40;99.90;;;;;;6690083;88;20086;-73
2023/08/15 01:33:42;;;;;;;;;;;21.40;99.90;;;;;;6685186;88;20096;-74
2023/08/15 01:43:44;;;;;;;;;;;21.30;99.90;;;;;;6688973;88;20130;-74
2023/08/15 01:53:44;;;;;;;;;;;21.30;99.90;;;;;;6688718;88;20067;-74
2023/08/15 02:03:44;;;;;;;;;;;21.50;99.90;;;;;;6690303;88;20084;-74
2023/08/15 02:13:45;;;;;;;;;;;21.50;99.90;;;;;;6689665;88;20094;-73
2023/08/15 02:23:45;;;;;;;;;;;21.50;99.90;;;;;;6693106;88;20137;-74
2023/08/15 02:33:46;;;;;;;;;;;21.40;99.90;;;;;;6689782;88;20085;-74
2023/08/15 02:43:46;;;;;;;;;;;21.30;99.90;;;;;;6691283;88;20905;-74
2023/08/15 02:53:47;;;;;;;;;;;21.30;99.90;;;;;;6686763;88;20055;-73
2023/08/15 03:03:47;;;;;;;;;;;21.00;99.90;;;;;;6693504;88;20095;-73
2023/08/15 03:13:48;;;;;;;;;;;20.90;99.90;;;;;;6686041;88;20205;-72
2023/08/15 03:23:48;;;;;;;;;;;21.00;99.90;;;;;;6691430;88;20063;-72
2023/08/15 03:33:49;;;;;;;;;;;19.80;99.90;;;;;;6692986;88;20146;-73
2023/08/15 03:43:49;;;;;;;;;;;19.10;99.90;;;;;;6688060;88;20100;-74
2023/08/15 03:53:50;;;;;;;;;;;18.90;99.90;;;;;;6693057;88;20670;-74
2023/08/15 04:13:53;;;;;;;;;;;18.70;99.90;;;;;;6689145;88;20117;-77
2023/08/15 04:23:54;;;;;;;;;;;18.60;99.90;;;;;;6685489;88;20616;-78
2023/08/15 04:33:54;;;;;;;;;;;18.60;99.90;;;;;;6681553;88;20087;-77
2023/08/15 04:43:55;;;;;;;;;;;18.70;99.90;;;;;;6686225;88;20041;-78
2023/08/15 04:53:55;;;;;;;;;;;18.70;99.90;;;;;;6680492;88;20086;-77
2023/08/15 05:03:56;;;;;;;;;;;18.80;99.90;;;;;;6688490;88;20143;-77
2023/08/15 05:13:57;;;;;;;;;;;18.70;99.90;;;;;;6687664;89;20615;-77
2023/08/15 05:23:57;;;;;;;;;;;18.80;99.90;;;;;;6677516;89;20061;-78
2023/08/15 05:33:58;;;;;;;;;;;18.90;99.90;;;;;;6678832;88;21820;-78
2023/08/15 05:43:58;;;;;;;;;;;19.10;99.90;;;;;;6684759;88;20052;-78
2023/08/15 05:53:58;;;;;;;;;;;19.20;99.90;;;;;;6687606;88;20072;-77
2023/08/15 06:04:00;;;;;;;;;;;19.20;99.90;;;;;;6685889;88;20052;-76
2023/08/15 06:14:00;;;;;;;;;;;19.20;99.90;;;;;;6686099;88;20072;-77
2023/08/15 06:24:01;;;;;;;;;;;19.40;99.90;;;;;;6687796;88;20078;-76
2023/08/15 06:34:02;;;;;;;;;;;19.50;99.90;;;;;;6677604;88;20078;-76
2023/08/15 06:44:02;;;;;;;;;;;19.60;99.90;;;;;;6675611;88;20115;-76
2023/08/15 06:54:03;;;;;;;;;;;19.60;99.90;;;;;;6681595;88;20083;-76
2023/08/15 07:04:04;;;;;;;;;;;20.10;99.90;;;;;;6681665;88;20091;-76
2023/08/15 07:14:05;;;;;;;;;;;20.00;99.90;;;;;;6682826;88;20178;-76
2023/08/15 07:24:05;;;;;;;;;;;20.30;99.90;;;;;;6682397;88;20500;-76
2023/08/15 07:34:06;;;;;;;;;;;20.40;99.90;;;;;;6681530;88;20131;-76
2023/08/15 07:44:06;;;;;;;;;;;20.30;99.90;;;;;;6680013;88;20073;-75
2023/08/15 07:54:07;;;;;;;;;;;20.50;99.90;;;;;;6679701;88;20055;-76
2023/08/15 08:04:08;;;;;;;;;;;21.00;99.90;;;;;;6679943;88;20060;-76
2023/08/15 08:14:08;;;;;;;;;;;21.30;99.90;;;;;;6680083;88;20190;-76
2023/08/15 08:24:09;;;;;;;;;;;21.40;99.90;;;;;;6679161;88;20148;-75
2023/08/15 08:34:15;;;;;;;;;;;21.50;99.90;;;;;;6689128;88;20080;-76
2023/08/15 08:44:16;;;;;;;;;;;21.70;99.90;;;;;;6682735;88;20049;-76
2023/08/15 08:54:17;;;;;;;;;;;21.80;99.90;;;;;;6679790;88;20701;-77
2023/08/15 09:04:20;;;;;;;;;;;21.90;99.90;;;;;;6677482;88;20072;-76
2023/08/15 09:14:22;;;;;;;;;;;22.00;99.90;;;;;;6678827;88;20071;-76
2023/08/15 09:24:25;;;;;;;;;;;22.30;99.90;;;;;;6679088;89;20071;-76
2023/08/15 09:34:26;;;;;;;;;;;22.30;99.90;;;;;;6678288;88;20489;-76
2023/08/15 09:44:38;;;;;;;;;;;22.80;99.90;;;;;;6679019;89;20147;-76
2023/08/15 09:54:40;;;;;;;;;;;23.40;99.90;;;;;;6678856;89;20060;-76
2023/08/15 10:04:41;;;;;;;;;;;24.20;99.90;;;;;;6688059;77;20092;-73
2023/08/15 10:14:41;;;;;;;;;;;23.60;99.90;;;;;;6709729;88;20117;-73
2023/08/15 10:24:42;;;;;;;;;;;23.60;99.90;;;;;;6708916;88;20052;-73
2023/08/15 10:34:48;;;;;;;;;;;23.90;99.90;;;;;;6705388;88;20900;-74
2023/08/15 10:44:59;;;;;;;;;;;24.60;99.90;;;;;;6710707;88;20192;-76
2023/08/15 10:55:00;;;;;;;;;;;24.70;99.90;;;;;;6702806;88;20184;-75
2023/08/15 11:05:00;;;;;;;;;;;24.90;99.90;;;;;;6712647;88;20101;-75
2023/08/15 11:15:01;;;;;;;;;;;24.80;99.90;;;;;;6712210;88;20078;-74
2023/08/15 11:25:02;;;;;;;;;;;24.60;99.90;;;;;;6714840;88;20066;-75
2023/08/15 11:35:03;;;;;;;;;;;24.30;99.90;;;;;;6709605;88;20541;-74
2023/08/15 11:45:22;;;;;;;;;;;24.20;99.90;;;;;;6711273;88;20059;-74
2023/08/15 11:55:24;;;;;;;;;;;24.50;99.90;;;;;;6709380;88;20059;-74
2023/08/15 12:05:24;;;;;;;;;;;24.90;99.90;;;;;;6707243;88;20055;-74
2023/08/15 12:15:25;;;;;;;;;;;25.60;99.90;;;;;;6706122;88;20079;-74
2023/08/15 12:25:27;;;;;;;;;;;24.90;99.90;;;;;;6711338;88;20124;-74
2023/08/15 12:35:28;;;;;;;;;;;24.90;99.90;;;;;;6713131;88;20074;-74
2023/08/15 12:45:28;;;;;;;;;;;24.70;99.90;;;;;;6711525;88;20626;-74
2023/08/15 12:55:29;;;;;;;;;;;24.50;99.90;;;;;;6720571;88;20112;-75
2023/08/15 13:05:29;;;;;;;;;;;24.30;99.90;;;;;;6706945;88;20089;-74
2023/08/15 13:15:30;;;;;;;;;;;24.30;99.90;;;;;;6712527;88;20126;-74
2023/08/15 13:25:30;;;;;;;;;;;24.30;99.90;;;;;;6715435;88;20048;-74
2023/08/15 13:35:31;;;;;;;;;;;24.30;99.90;;;;;;6711940;88;20446;-74
2023/08/15 13:45:31;;;;;;;;;;;24.50;99.90;;;;;;6709394;88;20079;-75
2023/08/15 13:55:32;;;;;;;;;;;24.30;99.90;;;;;;6704980;88;20139;-73
2023/08/15 14:05:34;;;;;;;;;;;24.20;99.90;;;;;;6711047;88;20702;-73
2023/08/15 14:15:36;;;;;;;;;;;24.10;99.90;;;;;;6711691;88;20126;-73
2023/08/15 14:25:36;;;;;;;;;;;24.30;99.90;;;;;;6714014;88;20105;-73
2023/08/15 14:35:37;;;;;;;;;;;24.20;99.90;;;;;;6712689;88;20579;-74
2023/08/15 14:45:37;;;;;;;;;;;24.20;99.90;;;;;;6711960;88;20197;-74
2023/08/15 14:55:38;;;;;;;;;;;24.20;99.90;;;;;;6711314;88;20551;-74
2023/08/15 15:05:38;;;;;;;;;;;24.30;99.90;;;;;;6712032;88;20079;-75
2023/08/15 15:15:39;;;;;;;;;;;24.60;99.90;;;;;;6708503;88;20275;-72
2023/08/15 15:25:45;;;;;;;;;;;25.10;99.90;;;;;;6711048;88;20071;-73
2023/08/15 15:35:46;;;;;;;;;;;24.50;99.90;;;;;;6710415;88;20535;-73
2023/08/15 15:45:46;;;;;;;;;;;25.10;99.90;;;;;;6710376;88;20071;-73
2023/08/15 15:55:47;;;;;;;;;;;26.30;99.90;;;;;;6714413;88;20050;-74
2023/08/15 16:05:47;;;;;;;;;;;27.10;99.90;;;;;;6718312;77;20086;-78
2023/08/15 16:15:48;;;;;;;;;;;27.20;99.90;;;;;;6723790;88;20098;-78
2023/08/15 16:25:48;;;;;;;;;;;27.40;99.90;;;;;;6715458;88;20070;-78
2023/08/15 16:35:49;;;;;;;;;;;27.10;99.90;;;;;;6715702;88;20073;-76
2023/08/15 16:45:49;;;;;;;;;;;27.20;99.90;;;;;;6711282;88;20050;-74
2023/08/15 16:55:50;;;;;;;;;;;28.50;99.90;;;;;;6722779;88;20051;-78
2023/08/15 17:05:50;;;;;;;;;;;28.00;99.90;;;;;;6710073;88;20523;-78
2023/08/15 17:15:51;;;;;;;;;;;27.10;99.90;;;;;;6708486;88;20186;-77
2023/08/15 17:25:51;;;;;;;;;;;26.60;99.90;;;;;;6711676;88;20136;-76
2023/08/15 17:35:52;;;;;;;;;;;27.30;99.90;;;;;;6708909;88;20491;-78
2023/08/15 17:45:52;;;;;;;;;;;27.00;99.90;;;;;;6714716;88;20113;-79
2023/08/15 17:55:53;;;;;;;;;;;26.10;99.90;;;;;;6717278;88;20063;-78
2023/08/15 18:05:53;;;;;;;;;;;25.50;99.90;;;;;;6723772;88;20613;-75
2023/08/15 18:15:54;;;;;;;;;;;25.20;99.90;;;;;;6719123;88;20074;-76
2023/08/15 18:25:54;;;;;;;;;;;24.70;99.90;;;;;;6712474;88;20076;-76
2023/08/15 18:35:55;;;;;;;;;;;24.40;99.90;;;;;;6710465;88;20520;-76
2023/08/15 18:45:56;;;;;;;;;;;24.20;99.90;;;;;;6713010;88;20544;-78
2023/08/15 18:55:56;;;;;;;;;;;24.00;99.90;;;;;;6712872;88;20067;-77
2023/08/15 19:05:57;;;;;;;;;;;23.80;99.90;;;;;;6712517;88;20058;-77
2023/08/15 19:15:57;;;;;;;;;;;23.40;99.90;;;;;;6711815;88;20175;-76
2023/08/15 19:25:59;;;;;;;;;;;23.10;99.90;;;;;;6710944;88;20076;-77
2023/08/15 19:35:59;;;;;;;;;;;22.90;99.90;;;;;;6709815;88;20438;-76
2023/08/15 19:46:00;;;;;;;;;;;22.50;99.90;;;;;;6708703;88;20122;-74
2023/08/15 19:56:00;;;;;;;;;;;22.30;99.90;;;;;;6709645;88;20073;-76
2023/08/15 20:06:01;;;;;;;;;;;22.30;99.90;;;;;;6708642;88;20385;-76
2023/08/15 20:16:02;;;;;;;;;;;22.00;99.90;;;;;;6712085;88;20052;-76
2023/08/15 20:26:02;;;;;;;;;;;21.90;99.90;;;;;;6723819;88;20507;-76
2023/08/15 20:36:03;;;;;;;;;;;21.80;99.90;;;;;;6715394;88;20660;-75
2023/08/15 20:46:03;;;;;;;;;;;21.60;99.90;;;;;;6710180;88;20055;-75
2023/08/15 20:56:04;;;;;;;;;;;21.60;99.90;;;;;;6710225;88;20201;-77
2023/08/15 21:06:04;;;;;;;;;;;21.60;99.90;;;;;;6713428;88;20071;-77
2023/08/15 21:16:05;;;;;;;;;;;21.50;99.90;;;;;;6716675;88;20096;-76
2023/08/15 21:26:05;;;;;;;;;;;21.50;99.90;;;;;;6718638;88;20107;-76
2023/08/15 21:36:06;;;;;;;;;;;21.60;99.90;;;;;;6714075;88;20092;-78
2023/08/15 21:46:06;;;;;;;;;;;21.40;99.90;;;;;;6720449;88;21035;-78
2023/08/15 21:56:07;;;;;;;;;;;21.30;99.90;;;;;;6718905;88;20190;-77
2023/08/15 22:06:07;;;;;;;;;;;21.10;99.90;;;;;;6719973;88;20537;-77
2023/08/15 22:16:07;;;;;;;;;;;21.10;99.90;;;;;;6712748;88;20096;-76
2023/08/15 22:26:10;;;;;;;;;;;21.00;99.90;;;;;;6719195;88;20074;-78
2023/08/15 22:36:11;;;;;;;;;;;20.90;99.90;;;;;;6718527;88;20264;-77
2023/08/15 22:46:11;;;;;;;;;;;20.70;99.90;;;;;;6717711;88;20066;-77
2023/08/15 22:56:12;;;;;;;;;;;20.60;99.90;;;;;;6708321;88;20107;-76
2023/08/15 23:06:12;;;;;;;;;;;20.60;99.90;;;;;;6710462;77;20084;-73
2023/08/15 23:16:13;;;;;;;;;;;20.60;99.90;;;;;;6697608;88;20069;-72
2023/08/15 23:26:13;;;;;;;;;;;20.50;99.90;;;;;;6693806;88;20067;-74
2023/08/15 23:36:14;;;;;;;;;;;20.30;99.90;;;;;;6688673;88;20078;-74
2023/08/15 23:46:15;;;;;;;;;;;20.20;99.90;;;;;;6689696;88;20056;-73
2023/08/15 23:56:15;;;;;;;;;;;20.20;99.90;;;;;;6688072;88;20135;-73
